createdAt,value
2023-09-17T00:00:56.675Z,21.95
2023-09-17T00:03:25.080Z,23.02
2023-09-17T00:05:54.742Z,21.38
2023-09-17T00:08:25.073Z,21.80
2023-09-17T00:10:53.659Z,19.92
2023-09-17T00:13:22.278Z,20.92
2023-09-17T00:15:50.858Z,20.70
2023-09-17T00:18:19.166Z,22.73
2023-09-17T00:20:47.573Z,22.63
2023-09-17T00:23:17.433Z,25.85
2023-09-17T00:25:45.831Z,27.35
2023-09-17T00:28:15.076Z,24.90
2023-09-17T00:30:43.470Z,20.67
2023-09-17T00:33:11.815Z,24.58
2023-09-17T00:35:40.040Z,25.38
2023-09-17T00:38:08.683Z,21.38
2023-09-17T00:40:40.335Z,22.98
2023-09-17T00:43:10.294Z,20.20
2023-09-17T00:45:38.755Z,22.88
2023-09-17T00:48:08.260Z,24.90
2023-09-17T00:50:37.555Z,25.40
2023-09-17T00:53:08.671Z,26.92
2023-09-17T00:55:40.396Z,25.38
2023-09-17T00:58:09.039Z,27.23
2023-09-17T01:00:39.810Z,26.55
2023-09-17T01:03:09.019Z,25.65
2023-09-17T01:05:43.918Z,30.60
2023-09-17T01:08:12.304Z,30.23
2023-09-17T01:10:42.339Z,29.85
2023-09-17T01:13:11.019Z,30.38
2023-09-17T01:15:40.386Z,30.02
2023-09-17T01:18:12.005Z,32.58
2023-09-17T01:20:46.370Z,34.47
2023-09-17T01:23:21.684Z,30.00
2023-09-17T01:25:58.110Z,34.33
2023-09-17T01:28:27.948Z,31.55
2023-09-17T01:30:56.131Z,31.70
2023-09-17T01:33:24.217Z,31.60
2023-09-17T01:35:59.669Z,27.60
2023-09-17T01:38:33.864Z,33.83
2023-09-17T01:41:04.054Z,28.27
2023-09-17T01:43:34.621Z,29.63
2023-09-17T01:46:03.563Z,34.60
2023-09-17T01:48:33.391Z,33.45
2023-09-17T01:51:02.187Z,33.47
2023-09-17T01:53:30.960Z,37.25
2023-09-17T01:55:59.438Z,34.78
2023-09-17T01:58:29.332Z,34.78
2023-09-17T02:00:58.925Z,33.58
2023-09-17T02:03:27.515Z,30.83
2023-09-17T02:05:55.838Z,34.50
2023-09-17T02:08:24.332Z,35.85
2023-09-17T02:10:52.425Z,35.35
2023-09-17T02:13:21.926Z,32.92
2023-09-17T02:15:50.440Z,36.40
2023-09-17T02:18:20.014Z,32.30
2023-09-17T02:20:48.117Z,31.65
2023-09-17T02:23:16.348Z,30.40
2023-09-17T02:25:44.634Z,34.35
2023-09-17T02:28:13.032Z,35.58
2023-09-17T02:30:41.141Z,35.80
2023-09-17T02:33:11.593Z,33.28
2023-09-17T02:35:41.809Z,31.27
2023-09-17T02:38:10.268Z,33.60
2023-09-17T02:40:38.472Z,27.40
2023-09-17T02:43:06.763Z,35.05
2023-09-17T02:45:34.853Z,31.63
2023-09-17T02:48:03.031Z,27.50
2023-09-17T02:50:31.241Z,27.95
2023-09-17T02:53:00.747Z,32.47
2023-09-17T02:55:28.831Z,27.52
2023-09-17T02:57:57.002Z,35.13
2023-09-17T03:00:25.080Z,27.13
2023-09-17T03:02:55.927Z,28.65
2023-09-17T03:05:24.264Z,26.98
2023-09-17T03:07:54.837Z,25.88
2023-09-17T03:10:25.681Z,27.45
2023-09-17T03:12:55.768Z,28.83
2023-09-17T03:15:23.985Z,30.67
2023-09-17T03:17:52.157Z,27.92
2023-09-17T03:20:23.578Z,25.80
2023-09-17T03:22:52.170Z,27.63
2023-09-17T03:25:20.648Z,29.27
2023-09-17T03:27:52.005Z,26.08
2023-09-17T03:30:20.108Z,27.52
2023-09-17T03:33:01.863Z,28.88
2023-09-17T03:35:35.072Z,26.40
2023-09-17T03:38:03.525Z,26.92
2023-09-17T03:40:33.151Z,29.92
2023-09-17T03:43:02.956Z,27.45
2023-09-17T03:45:32.191Z,27.38
2023-09-17T03:48:00.641Z,23.13
2023-09-17T03:50:30.200Z,30.40
2023-09-17T03:53:00.630Z,25.40
2023-09-17T03:55:29.628Z,25.77
2023-09-17T03:57:58.975Z,27.02
2023-09-17T04:00:32.230Z,27.40
2023-09-17T04:03:01.752Z,26.92
2023-09-17T04:05:30.203Z,24.05
2023-09-17T04:07:58.393Z,29.42
2023-09-17T04:10:27.340Z,29.95
2023-09-17T04:12:55.732Z,31.88
2023-09-17T04:15:24.027Z,21.50
2023-09-17T04:17:53.693Z,25.42
2023-09-17T04:20:22.505Z,27.13
2023-09-17T04:22:52.485Z,31.42
2023-09-17T04:25:22.555Z,24.65
2023-09-17T04:27:53.685Z,29.60
2023-09-17T04:30:23.940Z,26.42
2023-09-17T04:32:56.277Z,26.58
2023-09-17T04:35:25.088Z,24.35
2023-09-17T04:37:53.331Z,21.95
2023-09-17T04:40:31.492Z,23.52
2023-09-17T04:43:05.139Z,23.00
2023-09-17T04:45:35.677Z,23.80
2023-09-17T04:48:12.640Z,24.58
2023-09-17T04:50:46.303Z,26.58
2023-09-17T04:53:16.370Z,28.00
2023-09-17T04:55:46.547Z,22.63
2023-09-17T04:58:18.433Z,22.63
2023-09-17T05:00:49.801Z,25.48
2023-09-17T05:03:20.506Z,25.02
2023-09-17T05:05:50.987Z,21.25
2023-09-17T05:08:19.987Z,23.77
2023-09-17T05:10:49.853Z,27.95
2023-09-17T05:13:20.863Z,27.35
2023-09-17T05:15:50.406Z,24.55
2023-09-17T05:18:20.067Z,26.17
2023-09-17T05:20:50.206Z,22.48
2023-09-17T05:23:19.158Z,20.70
2023-09-17T05:28:18.259Z,22.25
2023-09-17T05:30:46.610Z,23.02
2023-09-17T05:33:15.086Z,22.48
2023-09-17T05:35:45.530Z,25.38
2023-09-17T05:38:14.257Z,24.83
2023-09-17T05:40:42.837Z,22.00
2023-09-17T05:43:11.371Z,20.13
2023-09-17T05:45:40.447Z,32.50
2023-09-17T05:48:08.645Z,25.52
2023-09-17T05:50:38.926Z,21.00
2023-09-17T05:53:08.572Z,21.90
2023-09-17T05:55:38.119Z,23.40
2023-09-17T05:58:06.405Z,19.20
2023-09-17T06:00:34.660Z,27.95
2023-09-17T06:03:03.109Z,22.40
2023-09-17T06:05:31.454Z,22.85
2023-09-17T06:07:59.721Z,18.95
2023-09-17T06:10:29.613Z,18.98
2023-09-17T06:12:57.961Z,17.63
2023-09-17T06:15:26.530Z,18.65
2023-09-17T06:17:55.188Z,26.80
2023-09-17T06:20:23.537Z,21.05
2023-09-17T06:22:51.758Z,22.75
2023-09-17T06:25:21.432Z,23.17
2023-09-17T06:27:51.223Z,23.17
2023-09-17T06:30:21.162Z,20.60
2023-09-17T06:32:49.641Z,19.80
2023-09-17T06:35:18.073Z,18.08
2023-09-17T06:37:46.429Z,22.75
2023-09-17T06:40:15.638Z,21.52
2023-09-17T06:42:45.050Z,20.80
2023-09-17T06:45:14.965Z,21.95
2023-09-17T06:47:43.405Z,18.45
2023-09-17T06:50:36.537Z,17.38
2023-09-17T06:53:05.452Z,19.77
2023-09-17T06:55:35.273Z,21.75
2023-09-17T06:58:03.502Z,19.43
2023-09-17T07:00:33.035Z,22.85
2023-09-17T07:03:01.510Z,23.13
2023-09-17T07:05:29.662Z,16.08
2023-09-17T07:07:57.918Z,21.92
2023-09-17T07:10:26.177Z,18.52
2023-09-17T07:12:54.378Z,23.77
2023-09-17T07:15:23.227Z,21.98
2023-09-17T07:17:53.706Z,25.02
2023-09-17T07:20:22.449Z,21.98
2023-09-17T07:22:51.151Z,18.77
2023-09-17T07:25:19.511Z,18.08
2023-09-17T07:27:48.333Z,20.88
2023-09-17T07:30:18.457Z,23.58
2023-09-17T07:32:46.760Z,22.27
2023-09-17T07:35:17.378Z,20.65
2023-09-17T07:40:17.993Z,21.23
2023-09-17T07:42:46.812Z,21.65
2023-09-17T07:45:15.266Z,22.83
2023-09-17T07:47:43.691Z,21.35
2023-09-17T07:50:11.990Z,19.02
2023-09-17T07:52:42.932Z,20.38
2023-09-17T07:55:11.871Z,21.15
2023-09-17T07:57:43.057Z,19.98
2023-09-17T08:00:13.700Z,21.17
2023-09-17T08:02:42.204Z,20.30
2023-09-17T08:05:11.666Z,20.00
2023-09-17T08:07:42.095Z,20.10
2023-09-17T08:10:11.138Z,22.63
2023-09-17T08:12:39.727Z,18.92
2023-09-17T08:15:10.110Z,15.20
2023-09-17T08:17:38.346Z,17.55
2023-09-17T08:20:09.846Z,18.92
2023-09-17T08:22:38.756Z,23.02
2023-09-17T08:25:28.848Z,15.85
2023-09-17T08:28:14.661Z,18.77
2023-09-17T08:31:03.501Z,17.60
2023-09-17T08:33:51.962Z,17.92
2023-09-17T08:36:22.951Z,17.92
2023-09-17T08:38:51.750Z,17.13
2023-09-17T08:41:24.258Z,16.35
2023-09-17T08:43:54.777Z,16.23
2023-09-17T08:46:27.057Z,12.90
2023-09-17T08:48:55.995Z,14.98
2023-09-17T08:51:26.044Z,10.88
2023-09-17T08:54:04.455Z,9.88
2023-09-17T08:56:37.623Z,9.60
2023-09-17T08:59:11.343Z,9.35
2023-09-17T09:01:42.303Z,7.63
2023-09-17T09:04:11.154Z,7.85
2023-09-17T09:06:39.981Z,8.00
2023-09-17T09:09:09.646Z,6.25
2023-09-17T09:11:40.188Z,7.33
2023-09-17T09:14:09.092Z,8.93
2023-09-17T09:16:38.847Z,7.18
2023-09-17T09:19:08.754Z,7.22
2023-09-17T09:21:37.212Z,4.70
2023-09-17T09:24:05.648Z,6.28
2023-09-17T09:26:38.059Z,8.85
2023-09-17T09:29:09.900Z,6.03
2023-09-17T09:31:38.403Z,6.63
2023-09-17T09:34:06.812Z,6.70
2023-09-17T09:36:35.771Z,9.45
2023-09-17T09:39:04.377Z,10.60
2023-09-17T09:41:34.574Z,9.95
2023-09-17T09:44:04.862Z,6.80
2023-09-17T09:46:36.389Z,7.10
2023-09-17T09:49:06.042Z,7.20
2023-09-17T09:51:37.227Z,8.77
2023-09-17T09:54:06.394Z,7.00
2023-09-17T09:56:34.571Z,5.47
2023-09-17T09:59:04.479Z,7.82
2023-09-17T10:01:33.166Z,10.05
2023-09-17T10:04:06.436Z,9.27
2023-09-17T10:06:34.624Z,6.97
2023-09-17T10:09:03.836Z,7.05
2023-09-17T10:11:33.043Z,4.30
2023-09-17T10:14:04.012Z,6.30
2023-09-17T10:16:33.156Z,5.90
2023-09-17T10:19:05.496Z,5.78
2023-09-17T10:21:38.873Z,7.05
2023-09-17T10:24:08.717Z,7.35
2023-09-17T10:26:43.237Z,10.07
2023-09-17T10:29:11.948Z,7.35
2023-09-17T10:31:42.427Z,8.93
2023-09-17T10:34:15.149Z,11.07
2023-09-17T10:36:46.095Z,6.45
2023-09-17T10:39:16.460Z,8.25
2023-09-17T10:41:49.640Z,8.48
2023-09-17T10:44:20.085Z,11.30
2023-09-17T10:46:49.897Z,10.68
2023-09-17T10:49:19.802Z,10.85
2023-09-17T10:51:48.186Z,8.13
2023-09-17T10:54:16.612Z,8.65
2023-09-17T10:56:47.156Z,13.32
2023-09-17T11:01:46.455Z,8.95
2023-09-17T11:04:17.958Z,9.25
2023-09-17T11:06:49.591Z,7.80
2023-09-17T11:09:18.201Z,9.93
2023-09-17T11:11:46.482Z,9.38
2023-09-17T11:14:15.380Z,11.90
2023-09-17T11:16:44.032Z,12.43
2023-09-17T11:19:13.452Z,10.30
2023-09-17T11:21:43.400Z,13.45
2023-09-17T11:24:14.122Z,15.45
2023-09-17T11:26:43.847Z,11.82
2023-09-17T11:29:12.701Z,14.73
2023-09-17T11:32:02.157Z,13.55
2023-09-17T11:34:30.393Z,15.10
2023-09-17T11:36:59.299Z,12.55
2023-09-17T11:39:29.044Z,12.95
2023-09-17T11:42:04.730Z,12.02
2023-09-17T11:44:35.262Z,15.02
2023-09-17T11:47:04.382Z,13.40
2023-09-17T11:49:33.866Z,14.45
2023-09-17T11:52:02.212Z,14.57
2023-09-17T11:54:35.452Z,12.23
2023-09-17T11:57:04.183Z,10.15
2023-09-17T11:59:39.512Z,11.13
2023-09-17T12:02:08.197Z,13.52
2023-09-17T12:04:38.086Z,13.60
2023-09-17T12:07:10.625Z,14.63
2023-09-17T12:09:50.085Z,13.00
2023-09-17T12:12:20.446Z,13.38
2023-09-17T12:14:49.028Z,12.52
2023-09-17T12:17:17.956Z,13.40
2023-09-17T12:19:50.358Z,13.93
2023-09-17T12:22:18.956Z,13.68
2023-09-17T12:25:04.437Z,13.40
2023-09-17T12:27:36.793Z,15.07
2023-09-17T12:30:09.728Z,17.98
2023-09-17T12:32:38.457Z,16.13
2023-09-17T12:35:08.601Z,17.48
2023-09-17T12:37:37.371Z,14.75
2023-09-17T12:40:09.797Z,20.38
2023-09-17T12:42:39.088Z,17.42
2023-09-17T12:45:09.793Z,16.58
2023-09-17T12:47:38.497Z,19.40
2023-09-17T12:50:07.699Z,15.70
2023-09-17T12:52:36.198Z,21.35
2023-09-17T12:55:04.906Z,17.63
2023-09-17T12:57:34.918Z,18.52
2023-09-17T13:00:04.615Z,14.20
2023-09-17T13:02:34.824Z,22.17
2023-09-17T13:05:04.078Z,17.95
2023-09-17T13:07:33.249Z,15.35
2023-09-17T13:10:02.152Z,13.23
2023-09-17T13:12:30.624Z,13.45
2023-09-17T13:15:01.888Z,18.35
2023-09-17T13:17:32.279Z,15.48
2023-09-17T13:20:00.885Z,14.48
2023-09-17T13:23:44.049Z,14.52
2023-09-17T13:26:13.148Z,15.93
2023-09-17T13:28:42.189Z,16.00
2023-09-17T13:31:12.381Z,14.05
2023-09-17T13:33:40.810Z,17.17
2023-09-17T13:36:11.920Z,15.85
2023-09-17T13:38:42.824Z,19.77
2023-09-17T13:41:11.178Z,15.25
2023-09-17T13:43:39.803Z,19.67
2023-09-17T13:46:08.456Z,16.92
2023-09-17T13:48:38.310Z,16.83
2023-09-17T13:51:06.659Z,17.30
2023-09-17T13:53:35.085Z,16.98
2023-09-17T13:56:03.690Z,14.35
2023-09-17T13:58:32.241Z,18.48
2023-09-17T14:01:00.780Z,13.43
2023-09-17T14:03:29.261Z,16.15
2023-09-17T14:05:59.217Z,17.67
2023-09-17T14:08:27.373Z,14.47
2023-09-17T14:10:55.872Z,15.43
2023-09-17T14:13:24.042Z,16.48
2023-09-17T14:15:52.191Z,16.63
2023-09-17T14:18:20.754Z,17.63
2023-09-17T14:20:49.172Z,15.52
2023-09-17T14:23:18.797Z,15.70
2023-09-17T14:25:47.089Z,17.13
2023-09-17T14:28:15.375Z,16.17
2023-09-17T14:30:43.773Z,14.70
2023-09-17T14:33:12.693Z,15.57
2023-09-17T14:35:41.041Z,17.20
2023-09-17T14:38:09.327Z,17.15
2023-09-17T14:40:39.125Z,15.20
2023-09-17T14:43:07.813Z,18.05
2023-09-17T14:45:37.723Z,18.15
2023-09-17T14:48:06.295Z,16.05
2023-09-17T14:50:34.798Z,18.90
2023-09-17T14:53:03.030Z,17.13
2023-09-17T14:55:31.396Z,17.55
2023-09-17T14:58:01.040Z,19.52
2023-09-17T15:00:29.248Z,18.98
2023-09-17T15:02:57.581Z,17.80
2023-09-17T15:05:26.096Z,19.00
2023-09-17T15:07:54.481Z,20.85
2023-09-17T15:10:22.705Z,22.38
2023-09-17T15:12:51.354Z,21.30
2023-09-17T15:15:21.201Z,23.02
2023-09-17T15:17:49.930Z,23.27
2023-09-17T15:20:21.223Z,22.83
2023-09-17T15:23:15.838Z,24.15
2023-09-17T15:25:44.875Z,21.95
2023-09-17T15:28:13.334Z,21.90
2023-09-17T15:30:42.956Z,28.10
2023-09-17T15:33:11.640Z,22.67
2023-09-17T15:35:40.136Z,23.52
2023-09-17T15:38:09.946Z,29.38
2023-09-17T15:40:38.770Z,23.88
2023-09-17T15:43:07.319Z,25.10
2023-09-17T15:45:35.672Z,29.60
2023-09-17T15:48:06.075Z,24.30
2023-09-17T15:50:34.724Z,28.70
2023-09-17T15:53:03.183Z,26.05
2023-09-17T15:55:31.580Z,25.83
2023-09-17T15:58:00.345Z,29.40
2023-09-17T16:00:28.750Z,27.55
2023-09-17T16:02:57.324Z,26.20
2023-09-17T16:05:27.503Z,26.20
2023-09-17T16:07:56.034Z,28.13
2023-09-17T16:10:25.727Z,28.15
2023-09-17T16:12:55.749Z,31.58
2023-09-17T16:15:26.355Z,29.85
2023-09-17T16:17:54.768Z,29.08
2023-09-17T16:20:23.911Z,31.42
2023-09-17T16:23:19.377Z,32.10
2023-09-17T16:25:47.560Z,32.45
2023-09-17T16:28:15.804Z,32.80
2023-09-17T16:30:44.498Z,33.53
2023-09-17T16:33:12.935Z,32.97
2023-09-17T16:35:41.460Z,31.27
2023-09-17T16:38:10.191Z,34.63
2023-09-17T16:40:40.728Z,30.73
2023-09-17T16:45:44.979Z,29.85
2023-09-17T16:48:13.998Z,34.13
2023-09-17T16:50:42.362Z,32.13
2023-09-17T16:53:11.092Z,30.17
2023-09-17T16:55:47.196Z,30.83
2023-09-17T16:58:18.953Z,30.27
2023-09-17T17:00:51.817Z,33.58
2023-09-17T17:03:20.583Z,34.13
2023-09-17T17:05:48.982Z,32.65
2023-09-17T17:08:17.430Z,35.47
2023-09-17T17:10:47.165Z,34.20
2023-09-17T17:13:15.930Z,34.57
2023-09-17T17:15:44.433Z,32.75
2023-09-17T17:18:12.779Z,35.65
2023-09-17T17:20:41.241Z,36.15
2023-09-17T17:23:09.858Z,30.75
2023-09-17T17:25:38.418Z,34.33
2023-09-17T17:28:08.390Z,39.20
2023-09-17T17:30:36.834Z,38.20
2023-09-17T17:33:05.980Z,35.28
2023-09-17T17:35:34.433Z,40.75
2023-09-17T17:38:02.739Z,37.85
2023-09-17T17:40:31.596Z,40.38
2023-09-17T17:47:52.861Z,44.35
2023-09-17T17:50:21.209Z,42.30
2023-09-17T17:52:49.648Z,39.95
2023-09-17T17:55:18.220Z,41.40
2023-09-17T17:57:47.155Z,47.70
2023-09-17T18:00:15.886Z,44.00
2023-09-17T18:02:47.773Z,45.85
2023-09-17T18:05:17.901Z,44.47
2023-09-17T18:07:46.595Z,43.30
2023-09-17T18:10:15.368Z,47.08
2023-09-17T18:12:44.457Z,45.65
2023-09-17T18:15:18.966Z,45.45
2023-09-17T18:17:48.368Z,48.58
2023-09-17T18:20:18.497Z,49.13
2023-09-17T18:22:46.827Z,55.38
2023-09-17T18:25:15.616Z,50.17
2023-09-17T18:27:43.872Z,52.08
2023-09-17T18:30:12.978Z,55.33
2023-09-17T18:32:41.403Z,55.58
2023-09-17T18:35:10.703Z,53.88
2023-09-17T18:37:40.351Z,53.22
2023-09-17T18:40:09.268Z,55.28
2023-09-17T18:42:37.594Z,54.00
2023-09-17T18:45:09.725Z,58.45
2023-09-17T18:47:39.276Z,66.22
2023-09-17T18:50:08.952Z,66.25
2023-09-17T18:52:37.802Z,62.83
2023-09-17T18:55:08.659Z,61.30
2023-09-17T18:57:38.187Z,67.03
2023-09-17T19:00:09.337Z,67.32
2023-09-17T19:02:41.012Z,66.97
2023-09-17T19:05:10.744Z,61.67
2023-09-17T19:07:40.574Z,72.37
2023-09-17T19:10:13.005Z,63.72
2023-09-17T19:12:41.313Z,65.85
2023-09-17T19:15:10.976Z,67.93
2023-09-17T19:17:39.451Z,65.40
2023-09-17T19:20:09.246Z,65.70
2023-09-17T19:22:37.613Z,69.72
2023-09-17T19:25:06.367Z,74.97
2023-09-17T19:27:36.525Z,74.47
2023-09-17T19:30:05.783Z,78.15
2023-09-17T19:32:34.341Z,79.95
2023-09-17T19:35:02.896Z,77.55
2023-09-17T19:37:31.680Z,79.00
2023-09-17T19:39:59.808Z,80.57
2023-09-17T19:42:29.232Z,77.78
2023-09-17T19:44:58.969Z,85.53
2023-09-17T19:47:27.696Z,86.95
2023-09-17T19:49:56.038Z,87.78
2023-09-17T19:52:25.002Z,88.43
2023-09-17T19:54:53.276Z,83.40
2023-09-17T19:57:22.776Z,84.28
2023-09-17T19:59:51.149Z,90.20
2023-09-17T20:02:21.546Z,82.90
2023-09-17T20:04:50.110Z,90.10
2023-09-17T20:07:20.048Z,83.38
2023-09-17T20:09:48.150Z,87.53
2023-09-17T20:12:16.370Z,86.53
2023-09-17T20:14:44.680Z,83.63
2023-09-17T20:17:13.077Z,85.45
2023-09-17T20:19:42.781Z,86.45
2023-09-17T20:22:10.875Z,78.43
2023-09-17T20:24:40.379Z,87.20
2023-09-17T20:27:08.652Z,81.13
2023-09-17T20:29:36.877Z,82.57
2023-09-17T20:32:05.334Z,85.05
2023-09-17T20:34:33.560Z,85.00
2023-09-17T20:37:03.870Z,83.13
2023-09-17T20:39:32.124Z,82.97
2023-09-17T20:42:00.325Z,86.82
2023-09-17T20:44:28.691Z,86.45
2023-09-17T20:46:57.353Z,88.45
2023-09-17T20:49:25.819Z,84.47
2023-09-17T20:51:53.955Z,86.90
2023-09-17T20:54:23.585Z,92.45
2023-09-17T20:56:51.750Z,77.60
2023-09-17T20:59:19.917Z,91.20
2023-09-17T21:01:48.207Z,88.43
2023-09-17T21:04:16.386Z,90.75
2023-09-17T21:06:44.482Z,83.80
2023-09-17T21:09:26.810Z,85.47
2023-09-17T21:11:55.105Z,94.78
2023-09-17T21:14:23.539Z,77.93
2023-09-17T21:16:51.716Z,80.28
2023-09-17T21:19:19.711Z,87.20
2023-09-17T21:21:47.800Z,78.55
2023-09-17T21:24:15.982Z,79.28
2023-09-17T21:26:45.588Z,80.32
2023-09-17T21:29:13.873Z,77.68
2023-09-17T21:31:42.105Z,81.15
2023-09-17T21:34:10.331Z,87.78
2023-09-17T21:36:38.470Z,82.90
2023-09-17T21:39:07.571Z,83.38
2023-09-17T21:41:36.547Z,82.80
2023-09-17T21:44:06.782Z,79.22
2023-09-17T21:46:35.460Z,87.30
2023-09-17T21:49:03.643Z,81.13
2023-09-17T21:51:31.699Z,82.93
2023-09-17T21:54:01.491Z,82.90
2023-09-17T21:56:30.303Z,84.32
2023-09-17T21:58:58.497Z,86.70
2023-09-17T22:01:28.263Z,78.53
2023-09-17T22:03:56.629Z,74.23
2023-09-17T22:06:24.758Z,79.60
2023-09-17T22:08:53.058Z,75.35
2023-09-17T22:11:23.222Z,78.20
2023-09-17T22:13:51.907Z,87.47
2023-09-17T22:16:20.502Z,81.20
2023-09-17T22:18:50.679Z,75.82
2023-09-17T22:21:19.090Z,79.50
2023-09-17T22:23:48.824Z,77.45
2023-09-17T22:26:18.482Z,78.70
2023-09-17T22:28:52.032Z,86.32
2023-09-17T22:31:25.753Z,78.25
2023-09-17T22:38:49.515Z,75.68
2023-09-17T22:41:18.750Z,70.35
2023-09-17T22:43:49.086Z,78.93
2023-09-17T22:56:01.191Z,72.75
2023-09-17T22:59:43.937Z,75.00
2023-09-17T23:02:12.281Z,70.40
2023-09-17T23:04:40.464Z,70.50
2023-09-17T23:07:08.619Z,73.50
2023-09-17T23:09:36.799Z,76.03
2023-09-17T23:12:06.811Z,75.22
2023-09-17T23:14:35.522Z,77.55
2023-09-17T23:17:03.830Z,67.10
2023-09-17T23:19:32.359Z,76.78
2023-09-17T23:22:00.748Z,81.32
2023-09-17T23:24:28.839Z,74.07
2023-09-17T23:26:56.888Z,80.13
2023-09-17T23:29:26.675Z,82.25
2023-09-17T23:31:54.884Z,81.90
2023-09-17T23:34:23.572Z,89.32
2023-09-17T23:36:51.691Z,91.55
2023-09-17T23:39:19.795Z,48.47
2023-09-17T23:41:47.880Z,18.17
2023-09-17T23:44:15.982Z,6.95
2023-09-17T23:46:45.435Z,7.22
2023-09-17T23:49:13.458Z,5.78
2023-09-17T23:51:41.778Z,4.03
2023-09-17T23:54:09.886Z,4.15
2023-09-17T23:56:38.217Z,7.03
2023-09-17T23:59:06.569Z,9.07
